• Join FlightAware (Why Join?)
  • Login
  • US Flag 
11:50PM EDT


 

Airport Tracker/Info


-or-


 

Live Flight TrackerFlight Track Log ✈ AWE1913 ✈ 19-Apr-2013 ✈ KPHL - MYNN / NAS

Flight Track Log - Related Links

Times and Time Zones

All times are in EDT time to prevent confusion due to time zone crossing. See the AWE1913 flight status page for this flight to view local times or setup timezone preferences in your user account.

Time Position Orientation Groundspeed Altitude Reporting Facility
EDT Latitude Longitude Course Direction KTS MPH feet Rate Location/Type
10:48AM 39.8767 -75.2161 185° South 172 198 1,000  Level FAA TRACON SMA TRACON (SMA)
10:49AM 39.8742 -75.1969 100° East 167 192 1,600 1,320 Climbing FAA TRACON SMA TRACON (SMA)
10:49AM 39.8694 -75.1761 106° East 201 231 1,900 1,320 Climbing FAA TRACON SMA TRACON (SMA)
10:49AM 39.8647 -75.1544 106° East 199 229 2,500 2,100 Climbing FAA TRACON SMA TRACON (SMA)
10:50AM 39.8575 -75.1278 109° East 200 230 3,300 1,620 Climbing FAA TRACON SMA TRACON (SMA)
10:50AM 39.8450 -75.1133 138° Southeast 198 228 3,600 1,020 Climbing FAA TRACON SMA TRACON (SMA)
10:50AM 39.8292 -75.1058 160° South 214 246 4,000 2,220 Climbing FAA TRACON SMA TRACON (SMA)
10:51AM 39.5406 -75.3086 189° South  Level FlightAware Approximate
10:51AM 39.8058 -75.0942 159° South 220 253 5,100  Level FAA TRACON SMA TRACON (SMA)
10:51AM 39.7875 -75.0856 160° South 225 259 6,000 2,520 Climbing FAA TRACON SMA TRACON (SMA)
10:51AM 39.7692 -75.0761 158° South 227 261 6,800 3,000 Climbing FAA TRACON SMA TRACON (SMA)
10:52AM 39.4297 -75.3337 185° South  Level FlightAware Approximate
10:52AM 39.7456 -75.0694 168° South 220 253 8,000  Level FAA TRACON SMA TRACON (SMA)
10:52AM 39.7281 -75.0742 192° South 202 232 8,900 1,920 Climbing FAA TRACON SMA TRACON (SMA)
10:52AM 39.7139 -75.0878 216° Southwest 214 246 9,300 1,920 Climbing FAA TRACON SMA TRACON (SMA)
10:53AM 39.3172 -75.3463 185° South  Level FlightAware Approximate
10:53AM 39.6972 -75.1111 227° Southwest 233 268 10,200  Level FAA TRACON SMA TRACON (SMA)
10:53AM 39.6800 -75.1247 211° Southwest 242 278 10,700 1,020 Climbing FAA TRACON SMA TRACON (SMA)
10:53AM 39.6608 -75.1300 192° South 260 299 10,900 1,260 Climbing FAA TRACON SMA TRACON (SMA)
10:54AM 39.6061 -75.1478 194° South 285 328 12,000 1,080 Climbing FAA TRACON SMA TRACON (SMA)
10:54AM 39.5844 -75.1536 192° South 294 338 12,000  Level FAA TRACON SMA TRACON (SMA)
10:55AM 39.5525 -75.1633 193° South 335 386 12,000 300 Level FAA TRACON SMA TRACON (SMA)
10:55AM 39.5161 -75.1739 193° South 353 406 12,200 1,020 Climbing FAA TRACON SMA TRACON (SMA)
10:55AM 39.4847 -75.1831 193° South 369 425 12,700 1,500 Climbing FAA TRACON SMA TRACON (SMA)
10:56AM 39.4539 -75.1919 193° South 368 423 13,200 1,620 Climbing FAA TRACON SMA TRACON (SMA)
10:56AM 39.4147 -75.2033 193° South 371 427 13,800 1,560 Climbing FAA TRACON SMA TRACON (SMA)
10:56AM 39.3831 -75.2117 191° South 373 429 14,300 1,440 Climbing FAA TRACON SMA TRACON (SMA)
10:57AM 39.3511 -75.2217 194° South 378 435 14,800 1,680 Climbing FAA TRACON SMA TRACON (SMA)
10:57AM 39.3111 -75.2333 193° South 381 438 15,400 1,320 Climbing FAA TRACON SMA TRACON (SMA)
10:57AM 39.2794 -75.2428 193° South 385 443 15,700 540 Climbing FAA TRACON SMA TRACON (SMA)
10:58AM 39.2706 -75.2450 191° South 386 444 15,800 120 Climbing FAA TRACON SMA TRACON (SMA)
10:58AM 39.2706 -75.2450 180° South 386 444 15,800 1,740 Level FAA TRACON SMA TRACON (SMA)
10:59AM 39.0881 -75.2975 193° South 395 455 18,300 2,460 Climbing Washington Center
11:00AM 38.9817 -75.3381 197° South 395 455 20,900 2,220 Climbing Washington Center
11:01AM 38.8944 -75.4156 215° Southwest 382 440 22,800 1,680 Climbing Washington Center
11:02AM 38.8089 -75.4958 216° Southwest 382 440 24,300 1,260 Climbing Washington Center
11:03AM 38.7047 -75.5197 190° South 380 437 25,400 1,020 Climbing Washington Center
11:04AM 38.5900 -75.5172 179° South 385 443 26,400 960 Climbing Washington Center
11:05AM 38.4733 -75.5147 179° South 406 467 27,400 780 Climbing Washington Center
11:06AM 38.3544 -75.5175 181° South 419 482 28,000 540 Climbing Washington Center
11:07AM 38.2525 -75.5628 199° South 432 497 28,500 420 Climbing Washington Center
11:08AM 38.1397 -75.6339 206° Southwest 437 503 28,900 540 Climbing Washington Center
11:09AM 38.0292 -75.7131 209° Southwest 450 518 29,600 600 Climbing Washington Center
11:10AM 37.9144 -75.7839 206° Southwest 455 524 30,100 660 Climbing Washington Center
11:11AM 37.7828 -75.8597 204° Southwest 460 529 31,000 780 Climbing Washington Center
11:12AM 37.6867 -75.9250 208° Southwest 460 529 31,700 600 Climbing Washington Center
11:13AM 37.5719 -75.9953 206° Southwest 460 529 32,300 900 Climbing Washington Center
11:14AM 37.4569 -76.0653 206° Southwest 460 529 33,600 840 Climbing Washington Center
11:15AM 37.3439 -76.1325 205° Southwest 460 529 34,000 900 Climbing Washington Center
11:16AM 37.2183 -76.2022 204° Southwest 449 517 35,400 960 Climbing Washington Center
11:17AM 37.1097 -76.2689 206° Southwest 444 511 36,000 300 Climbing Washington Center
11:18AM 37.0008 -76.3356 206° Southwest 444 511 36,000  Level Washington Center
11:19AM 36.8919 -76.3994 205° Southwest 439 505 36,000  Level Washington Center
11:20AM 36.7831 -76.4658 206° Southwest 439 505 36,000  Level Washington Center
11:21AM 36.6867 -76.5217 205° Southwest 439 505 36,000  Level Washington Center
11:22AM 36.5567 -76.5772 199° South 446 513 36,000  Level Washington Center
11:23AM 36.4417 -76.6300 200° South 446 513 36,000  Level Washington Center
11:24AM 36.3244 -76.6669 194° South 446 513 36,000  Level Washington Center
11:25AM 36.2053 -76.6936 190° South 440 506 36,000  Level Washington Center
11:26AM 36.0839 -76.7153 188° South 440 506 36,000  Level Washington Center
11:27AM 35.9628 -76.7392 189° South 440 506 36,000  Level Washington Center
11:28AM 35.8475 -76.7861 198° South 440 506 36,000  Level Washington Center
11:29AM 35.7364 -76.8458 204° Southwest 440 506 36,000  Level Washington Center
11:30AM 35.6483 -76.8931 204° Southwest 440 506 36,000  Level Washington Center
11:31AM 35.5286 -76.9575 204° Southwest 434 499 36,000  Level Washington Center
11:32AM 35.4175 -77.0117 202° Southwest 434 499 36,000  Level Washington Center
11:33AM 35.3019 -77.0733 204° Southwest 439 505 36,000  Level Washington Center
11:34AM 35.1906 -77.1322 203° Southwest 439 505 36,000  Level Washington Center
11:35AM 35.0792 -77.1883 202° Southwest 439 505 36,000  Level Washington Center
11:36AM 34.9617 -77.2494 203° Southwest 445 512 36,000  Level Washington Center
11:37AM 34.8481 -77.3081 203° Southwest 445 512 36,100  Climbing Washington Center
11:38AM 34.7344 -77.3711 205° Southwest 445 512 36,000 -60 Descending Washington Center
11:39AM 34.6189 -77.4269 202° Southwest 445 512 36,000  Level Washington Center
11:40AM 34.5014 -77.4694 197° South 445 512 36,000  Level Washington Center
11:41AM 34.3758 -77.4969 190° South 450 518 36,000  Level Washington Center
11:42AM 34.2500 -77.5242 190° South 461 531 36,000  Level Washington Center
11:43AM 34.1244 -77.5489 189° South 461 531 36,000  Level Washington Center
11:43AM 34.0700 -77.5581 188° South 466 536 36,000  Level Jacksonville Center
11:44AM 33.9439 -77.5883 191° South 466 536 36,000  Level Jacksonville Center
11:45AM 33.8178 -77.6158 190° South 466 536 36,000  Level Jacksonville Center
11:46AM 33.6994 -77.6256 184° South 460 529 36,000  Level Jacksonville Center
11:47AM 33.5511 -77.6742 195° South 468 539 36,000  Level Jacksonville Center
11:48AM 33.4269 -77.6989 189° South 468 539 36,000  Level Jacksonville Center
11:49AM 33.2986 -77.7264 190° South 468 539 36,000  Level Jacksonville Center
11:50AM 33.1728 -77.7558 191° South 468 539 36,000  Level Jacksonville Center
11:51AM 33.0464 -77.7806 189° South 468 539 36,000  Level Jacksonville Center
11:52AM 32.9158 -77.8078 190° South 468 539 36,000  Level Jacksonville Center
11:53AM 32.7919 -77.8344 190° South 468 539 36,000  Level Jacksonville Center
11:54AM 32.6614 -77.8617 190° South 468 539 36,000  Level Jacksonville Center
11:55AM 32.5331 -77.8883 190° South 468 539 36,000  Level Jacksonville Center
11:56AM 32.4069 -77.9150 190° South 468 539 36,000  Level Jacksonville Center
11:57AM 32.2764 -77.9417 190° South 468 539 36,000  Level Jacksonville Center
11:58AM 32.1503 -77.9731 192° South 468 539 36,000  Level Jacksonville Center
11:59AM 32.0219 -77.9972 189° South 468 539 36,000  Level Jacksonville Center
12:00PM 31.8936 -78.0261 191° South 468 539 36,000  Level Jacksonville Center
12:01PM 31.7631 -78.0525 190° South 468 539 36,000  Level Jacksonville Center
12:02PM 31.6369 -78.0858 193° South 468 539 36,000  Level Jacksonville Center
12:03PM 31.5086 -78.1119 190° South 468 539 36,000  Level Jacksonville Center
12:04PM 31.3803 -78.1406 191° South 473 544 36,000  Level Jacksonville Center
12:05PM 31.2539 -78.1639 189° South 473 544 36,000  Level Jacksonville Center
12:06PM 31.1233 -78.1897 190° South 473 544 36,000  Level Jacksonville Center
12:07PM 30.9950 -78.2253 193° South 467 537 36,000  Level Jacksonville Center
12:08PM 30.8711 -78.2556 192° South 468 539 36,000  Level Jacksonville Center
12:09PM 30.7403 -78.2814 190° South 468 539 36,000  Level Jacksonville Center
12:11PM 30.5583 -78.3200 190° South 470 541 36,000  Level Miami Center
12:12PM 30.4311 -78.3469 190° South 470 541 36,000  Level Miami Center
12:13PM 30.2997 -78.3403 177° South 478 550 36,000  Level Miami Center
12:15PM 30.0336 -78.2864 170° South 488 562 36,000  Level Miami Center
12:16PM 29.8856 -78.2653 173° South 487 560 36,000  Level Miami Center
12:17PM 29.7567 -78.2422 171° South 472 543 36,000  Level Miami Center
12:18PM 29.6297 -78.2192 171° South 479 551 36,000  Level Miami Center
12:19PM 29.4861 -78.1864 169° South 494 568 36,000  Level Miami Center
12:20PM 29.3486 -78.1583 170° South 494 568 36,100  Climbing Miami Center
12:21PM 29.2131 -78.1356 172° South 499 574 36,100 -60 Level Miami Center
12:22PM 29.0839 -78.1125 171° South 495 570 36,000 -180 Descending Miami Center
12:23PM 28.9467 -78.0850 170° South 489 563 35,800 -420 Descending Miami Center
12:24PM 28.8153 -78.0575 170° South 490 564 35,200 -660 Descending Miami Center
12:25PM 28.6797 -78.0347 172° South 500 575 34,500 -600 Descending Miami Center
12:26PM 28.5381 -78.0072 170° South 500 575 34,000 -300 Descending Miami Center
12:27PM 28.4089 -77.9822 170° South 492 566 34,000  Level Miami Center
12:28PM 28.2672 -77.9572 171° South 497 572 34,000  Level Miami Center
12:29PM 28.1317 -77.9325 171° South 498 573 34,000  Level Miami Center
12:30PM 27.9939 -77.9075 171° South 504 580 34,000  Level Miami Center
12:31PM 27.8564 -77.8806 170° South 504 580 34,000  Level Miami Center
12:32PM 27.7167 -77.8558 171° South 510 587 34,000  Level Miami Center
12:33PM 27.5789 -77.8289 170° South 505 581 34,000  Level Miami Center
12:34PM 27.4475 -77.8044 171° South 497 572 34,000  Level Miami Center
12:35PM 27.3036 -77.7844 173° South 497 572 34,000 -420 Level Miami Center
12:36PM 27.1639 -77.7531 169° South 504 580 33,200 -1,500 Descending Miami Center
12:37PM 27.0219 -77.7308 172° South 504 580 31,100 -2,220 Descending Miami Center
12:38PM 26.8800 -77.7089 172° South 509 586 28,800 -2,340 Descending Miami Center
12:39PM 26.7361 -77.6800 170° South 520 598 26,500 -2,460 Descending Miami Center
12:40PM 26.6003 -77.6558 171° South 520 598 23,900 -2,640 Descending Miami Center
12:41PM 26.4647 -77.6317 171° South 508 585 21,300 -2,640 Descending Miami Center
12:42PM 26.3353 -77.6006 168° South 489 563 18,700 -2,580 Descending Miami Center
12:43PM 26.2100 -77.5814 172° South 474 545 16,200 -2,520 Descending Miami Center
12:44PM 26.0972 -77.5597 170° South 445 512 13,700 -1,560 Descending Miami Center
12:45PM 25.9803 -77.5431 173° South 431 496 13,100 -300 Descending Miami Center
12:46PM 25.8719 -77.5192 169° South 414 476 13,100  Level Miami Center
12:47PM 25.7800 -77.5072 173° South 377 434 13,100 -480 Level Miami Center
12:48PM 25.6986 -77.4906 170° South 333 383 12,200 -1,380 Descending Miami Center
12:49PM 25.6128 -77.4833 176° South 314 361 10,400 -1,980 Descending Miami Center
12:50PM 25.5314 -77.4783 177° South 303 349 8,300 -1,980 Descending Miami Center
12:51PM 25.4644 -77.4756 178° South 292 336 6,500 -1,800 Descending Miami Center